sensor_id;sensor_type;location;lat;lon;timestamp;temperature;humidity
44431;DHT22;30135;47.866;-4.222;2024-01-07T00:01:36;6.70;99.10
44431;DHT22;30135;47.866;-4.222;2024-01-07T00:04:02;6.70;99.00
44431;DHT22;30135;47.866;-4.222;2024-01-07T00:06:28;6.70;99.00
44431;DHT22;30135;47.866;-4.222;2024-01-07T00:08:57;6.70;99.00
44431;DHT22;30135;47.866;-4.222;2024-01-07T00:11:24;6.60;99.00
44431;DHT22;30135;47.866;-4.222;2024-01-07T00:13:50;6.60;99.00
44431;DHT22;30135;47.866;-4.222;2024-01-07T00:16:16;6.60;99.00
44431;DHT22;30135;47.866;-4.222;2024-01-07T00:18:42;6.60;99.00
44431;DHT22;30135;47.866;-4.222;2024-01-07T00:21:12;6.50;99.00
44431;DHT22;30135;47.866;-4.222;2024-01-07T00:23:38;6.50;99.00
44431;DHT22;30135;47.866;-4.222;2024-01-07T00:26:04;6.50;99.00
44431;DHT22;30135;47.866;-4.222;2024-01-07T00:28:30;6.50;99.00
44431;DHT22;30135;47.866;-4.222;2024-01-07T00:30:56;6.50;99.00
44431;DHT22;30135;47.866;-4.222;2024-01-07T00:33:22;6.40;98.90
44431;DHT22;30135;47.866;-4.222;2024-01-07T00:35:48;6.40;98.90
44431;DHT22;30135;47.866;-4.222;2024-01-07T00:38:16;6.40;98.90
44431;DHT22;30135;47.866;-4.222;2024-01-07T00:40:43;6.40;98.90
44431;DHT22;30135;47.866;-4.222;2024-01-07T00:43:09;6.40;98.90
44431;DHT22;30135;47.866;-4.222;2024-01-07T00:45:35;6.30;98.90
44431;DHT22;30135;47.866;-4.222;2024-01-07T00:48:01;6.30;98.90
44431;DHT22;30135;47.866;-4.222;2024-01-07T00:50:27;6.30;98.90
44431;DHT22;30135;47.866;-4.222;2024-01-07T00:52:53;6.30;98.90
44431;DHT22;30135;47.866;-4.222;2024-01-07T00:55:19;6.30;98.90
44431;DHT22;30135;47.866;-4.222;2024-01-07T00:57:45;6.30;98.90
44431;DHT22;30135;47.866;-4.222;2024-01-07T01:00:11;6.20;98.90
44431;DHT22;30135;47.866;-4.222;2024-01-07T01:02:37;6.20;98.90
44431;DHT22;30135;47.866;-4.222;2024-01-07T01:05:03;6.20;98.80
44431;DHT22;30135;47.866;-4.222;2024-01-07T01:07:30;6.20;98.90
44431;DHT22;30135;47.866;-4.222;2024-01-07T01:09:56;6.20;98.90
44431;DHT22;30135;47.866;-4.222;2024-01-07T01:12:23;6.20;98.90
44431;DHT22;30135;47.866;-4.222;2024-01-07T01:14:49;6.10;98.90
44431;DHT22;30135;47.866;-4.222;2024-01-07T01:17:15;6.10;98.90
44431;DHT22;30135;47.866;-4.222;2024-01-07T01:19:41;6.10;98.90
44431;DHT22;30135;47.866;-4.222;2024-01-07T01:22:07;6.10;98.90
44431;DHT22;30135;47.866;-4.222;2024-01-07T01:24:33;6.10;98.90
44431;DHT22;30135;47.866;-4.222;2024-01-07T01:27:00;6.10;98.90
44431;DHT22;30135;47.866;-4.222;2024-01-07T01:29:26;6.10;98.90
44431;DHT22;30135;47.866;-4.222;2024-01-07T01:31:52;6.00;98.80
44431;DHT22;30135;47.866;-4.222;2024-01-07T01:34:18;6.00;98.80
44431;DHT22;30135;47.866;-4.222;2024-01-07T01:36:44;6.00;98.80
44431;DHT22;30135;47.866;-4.222;2024-01-07T01:39:09;6.00;98.90
44431;DHT22;30135;47.866;-4.222;2024-01-07T01:41:36;6.00;99.00
44431;DHT22;30135;47.866;-4.222;2024-01-07T01:44:02;6.00;99.00
44431;DHT22;30135;47.866;-4.222;2024-01-07T01:46:28;6.00;99.00
44431;DHT22;30135;47.866;-4.222;2024-01-07T01:48:56;6.00;99.00
44431;DHT22;30135;47.866;-4.222;2024-01-07T01:51:22;6.00;99.10
44431;DHT22;30135;47.866;-4.222;2024-01-07T01:53:49;6.00;99.10
44431;DHT22;30135;47.866;-4.222;2024-01-07T01:56:17;6.00;99.10
44431;DHT22;30135;47.866;-4.222;2024-01-07T01:58:45;6.00;99.10
44431;DHT22;30135;47.866;-4.222;2024-01-07T02:01:12;6.10;99.20
44431;DHT22;30135;47.866;-4.222;2024-01-07T02:03:39;6.00;99.20
44431;DHT22;30135;47.866;-4.222;2024-01-07T02:06:05;6.10;99.20
44431;DHT22;30135;47.866;-4.222;2024-01-07T02:08:31;6.10;99.20
44431;DHT22;30135;47.866;-4.222;2024-01-07T02:11:13;6.10;99.20
44431;DHT22;30135;47.866;-4.222;2024-01-07T02:13:41;6.10;99.20
44431;DHT22;30135;47.866;-4.222;2024-01-07T02:16:07;6.10;99.30
44431;DHT22;30135;47.866;-4.222;2024-01-07T02:18:33;6.00;99.30
44431;DHT22;30135;47.866;-4.222;2024-01-07T02:20:59;6.00;99.30
44431;DHT22;30135;47.866;-4.222;2024-01-07T02:23:25;6.10;99.40
44431;DHT22;30135;47.866;-4.222;2024-01-07T02:25:51;6.00;99.40
44431;DHT22;30135;47.866;-4.222;2024-01-07T02:28:17;6.00;99.40
44431;DHT22;30135;47.866;-4.222;2024-01-07T02:30:43;6.10;99.40
44431;DHT22;30135;47.866;-4.222;2024-01-07T02:33:09;6.10;99.40
44431;DHT22;30135;47.866;-4.222;2024-01-07T02:35:35;6.10;99.40
44431;DHT22;30135;47.866;-4.222;2024-01-07T02:38:01;6.10;99.40
44431;DHT22;30135;47.866;-4.222;2024-01-07T02:40:27;6.10;99.40
44431;DHT22;30135;47.866;-4.222;2024-01-07T02:42:53;6.00;99.30
44431;DHT22;30135;47.866;-4.222;2024-01-07T02:45:19;6.00;99.30
44431;DHT22;30135;47.866;-4.222;2024-01-07T02:47:45;6.00;99.30
44431;DHT22;30135;47.866;-4.222;2024-01-07T02:50:11;6.00;99.30
44431;DHT22;30135;47.866;-4.222;2024-01-07T02:52:36;6.00;99.30
44431;DHT22;30135;47.866;-4.222;2024-01-07T02:55:02;6.00;99.40
44431;DHT22;30135;47.866;-4.222;2024-01-07T02:57:29;5.90;99.40
44431;DHT22;30135;47.866;-4.222;2024-01-07T02:59:54;5.90;99.50
44431;DHT22;30135;47.866;-4.222;2024-01-07T03:02:20;5.90;99.50
44431;DHT22;30135;47.866;-4.222;2024-01-07T03:04:46;6.00;99.90
44431;DHT22;30135;47.866;-4.222;2024-01-07T03:07:12;6.00;99.60
44431;DHT22;30135;47.866;-4.222;2024-01-07T03:09:38;6.00;99.60
44431;DHT22;30135;47.866;-4.222;2024-01-07T03:12:04;6.00;99.60
44431;DHT22;30135;47.866;-4.222;2024-01-07T03:14:30;6.00;99.60
44431;DHT22;30135;47.866;-4.222;2024-01-07T03:16:56;5.90;99.60
44431;DHT22;30135;47.866;-4.222;2024-01-07T03:19:22;6.00;99.60
44431;DHT22;30135;47.866;-4.222;2024-01-07T03:21:49;5.90;99.60
44431;DHT22;30135;47.866;-4.222;2024-01-07T03:24:15;6.00;99.70
44431;DHT22;30135;47.866;-4.222;2024-01-07T03:26:41;6.00;99.80
44431;DHT22;30135;47.866;-4.222;2024-01-07T03:29:06;5.90;99.80
44431;DHT22;30135;47.866;-4.222;2024-01-07T03:31:33;6.00;99.80
44431;DHT22;30135;47.866;-4.222;2024-01-07T03:33:59;6.00;99.80
44431;DHT22;30135;47.866;-4.222;2024-01-07T03:36:25;6.00;99.80
44431;DHT22;30135;47.866;-4.222;2024-01-07T03:38:51;6.00;99.80
44431;DHT22;30135;47.866;-4.222;2024-01-07T03:41:18;6.00;99.90
44431;DHT22;30135;47.866;-4.222;2024-01-07T03:43:49;6.00;99.90
44431;DHT22;30135;47.866;-4.222;2024-01-07T03:46:16;6.00;99.90
44431;DHT22;30135;47.866;-4.222;2024-01-07T03:48:43;6.00;99.90
44431;DHT22;30135;47.866;-4.222;2024-01-07T03:51:09;6.00;99.90
44431;DHT22;30135;47.866;-4.222;2024-01-07T03:53:35;6.00;99.90
44431;DHT22;30135;47.866;-4.222;2024-01-07T03:56:01;6.00;99.90
44431;DHT22;30135;47.866;-4.222;2024-01-07T03:58:27;6.00;99.90
44431;DHT22;30135;47.866;-4.222;2024-01-07T04:00:53;6.00;99.90
44431;DHT22;30135;47.866;-4.222;2024-01-07T04:03:19;6.00;99.90
44431;DHT22;30135;47.866;-4.222;2024-01-07T04:05:45;6.10;99.90
44431;DHT22;30135;47.866;-4.222;2024-01-07T04:08:11;6.10;99.90
44431;DHT22;30135;47.866;-4.222;2024-01-07T04:10:38;6.00;99.90
44431;DHT22;30135;47.866;-4.222;2024-01-07T04:13:07;6.00;99.90
44431;DHT22;30135;47.866;-4.222;2024-01-07T04:15:33;6.00;99.90
44431;DHT22;30135;47.866;-4.222;2024-01-07T04:18:03;6.00;99.90
44431;DHT22;30135;47.866;-4.222;2024-01-07T04:20:30;6.00;99.90
44431;DHT22;30135;47.866;-4.222;2024-01-07T04:22:57;6.00;99.90
44431;DHT22;30135;47.866;-4.222;2024-01-07T04:25:24;6.00;99.90
44431;DHT22;30135;47.866;-4.222;2024-01-07T04:27:50;6.00;99.90
44431;DHT22;30135;47.866;-4.222;2024-01-07T04:30:16;6.00;99.90
44431;DHT22;30135;47.866;-4.222;2024-01-07T04:32:42;6.00;99.90
44431;DHT22;30135;47.866;-4.222;2024-01-07T04:35:08;6.00;99.90
44431;DHT22;30135;47.866;-4.222;2024-01-07T04:37:35;6.00;99.90
44431;DHT22;30135;47.866;-4.222;2024-01-07T04:40:03;5.90;99.90
44431;DHT22;30135;47.866;-4.222;2024-01-07T04:42:30;6.00;99.90
44431;DHT22;30135;47.866;-4.222;2024-01-07T04:44:57;6.00;99.90
44431;DHT22;30135;47.866;-4.222;2024-01-07T04:47:30;6.00;99.90
44431;DHT22;30135;47.866;-4.222;2024-01-07T04:50:06;5.90;99.90
44431;DHT22;30135;47.866;-4.222;2024-01-07T04:52:32;6.00;99.90
44431;DHT22;30135;47.866;-4.222;2024-01-07T04:54:58;5.90;99.90
44431;DHT22;30135;47.866;-4.222;2024-01-07T04:57:24;6.00;99.90
44431;DHT22;30135;47.866;-4.222;2024-01-07T04:59:50;6.00;99.90
44431;DHT22;30135;47.866;-4.222;2024-01-07T05:02:17;5.90;99.90
44431;DHT22;30135;47.866;-4.222;2024-01-07T05:04:43;5.90;99.90
44431;DHT22;30135;47.866;-4.222;2024-01-07T05:07:09;5.90;99.90
44431;DHT22;30135;47.866;-4.222;2024-01-07T05:09:35;5.90;99.90
44431;DHT22;30135;47.866;-4.222;2024-01-07T05:12:01;5.90;99.90
44431;DHT22;30135;47.866;-4.222;2024-01-07T05:14:27;5.90;99.90
44431;DHT22;30135;47.866;-4.222;2024-01-07T05:16:53;5.90;99.90
44431;DHT22;30135;47.866;-4.222;2024-01-07T05:19:20;5.80;99.90
44431;DHT22;30135;47.866;-4.222;2024-01-07T05:21:46;5.80;99.90
44431;DHT22;30135;47.866;-4.222;2024-01-07T05:24:12;5.80;99.90
44431;DHT22;30135;47.866;-4.222;2024-01-07T05:26:39;5.80;99.90
44431;DHT22;30135;47.866;-4.222;2024-01-07T05:29:05;5.80;99.90
44431;DHT22;30135;47.866;-4.222;2024-01-07T05:31:31;5.70;99.90
44431;DHT22;30135;47.866;-4.222;2024-01-07T05:33:57;5.70;99.90
44431;DHT22;30135;47.866;-4.222;2024-01-07T05:36:23;5.70;99.90
44431;DHT22;30135;47.866;-4.222;2024-01-07T05:38:49;5.70;99.90
44431;DHT22;30135;47.866;-4.222;2024-01-07T05:41:15;5.70;99.90
44431;DHT22;30135;47.866;-4.222;2024-01-07T05:43:41;5.60;99.90
44431;DHT22;30135;47.866;-4.222;2024-01-07T05:46:07;5.60;99.90
44431;DHT22;30135;47.866;-4.222;2024-01-07T05:48:45;5.60;99.90
44431;DHT22;30135;47.866;-4.222;2024-01-07T05:51:13;5.60;99.90
44431;DHT22;30135;47.866;-4.222;2024-01-07T05:53:40;5.60;99.90
44431;DHT22;30135;47.866;-4.222;2024-01-07T05:56:06;5.50;99.90
44431;DHT22;30135;47.866;-4.222;2024-01-07T05:58:33;5.50;99.80
44431;DHT22;30135;47.866;-4.222;2024-01-07T06:00:59;5.50;99.80
44431;DHT22;30135;47.866;-4.222;2024-01-07T06:03:26;5.40;99.80
44431;DHT22;30135;47.866;-4.222;2024-01-07T06:05:52;5.40;99.80
44431;DHT22;30135;47.866;-4.222;2024-01-07T06:08:18;5.40;99.80
44431;DHT22;30135;47.866;-4.222;2024-01-07T06:10:44;5.40;99.90
44431;DHT22;30135;47.866;-4.222;2024-01-07T06:13:10;5.40;99.80
44431;DHT22;30135;47.866;-4.222;2024-01-07T06:15:36;5.40;99.80
44431;DHT22;30135;47.866;-4.222;2024-01-07T06:18:02;5.40;99.80
44431;DHT22;30135;47.866;-4.222;2024-01-07T06:20:28;5.30;99.70
44431;DHT22;30135;47.866;-4.222;2024-01-07T06:22:54;5.30;99.70
44431;DHT22;30135;47.866;-4.222;2024-01-07T06:25:20;5.30;99.70
44431;DHT22;30135;47.866;-4.222;2024-01-07T06:27:46;5.30;99.70
44431;DHT22;30135;47.866;-4.222;2024-01-07T06:30:12;5.30;99.70
44431;DHT22;30135;47.866;-4.222;2024-01-07T06:32:39;5.20;99.70
44431;DHT22;30135;47.866;-4.222;2024-01-07T06:35:05;5.20;99.60
44431;DHT22;30135;47.866;-4.222;2024-01-07T06:37:31;5.20;99.60
44431;DHT22;30135;47.866;-4.222;2024-01-07T06:39:57;5.20;99.60
44431;DHT22;30135;47.866;-4.222;2024-01-07T06:42:24;5.10;99.50
44431;DHT22;30135;47.866;-4.222;2024-01-07T06:44:50;5.10;99.60
44431;DHT22;30135;47.866;-4.222;2024-01-07T06:47:16;5.10;99.50
44431;DHT22;30135;47.866;-4.222;2024-01-07T06:49:42;5.10;99.50
44431;DHT22;30135;47.866;-4.222;2024-01-07T06:52:08;5.00;99.50
44431;DHT22;30135;47.866;-4.222;2024-01-07T06:54:34;5.10;99.50
44431;DHT22;30135;47.866;-4.222;2024-01-07T06:57:00;5.10;99.50
44431;DHT22;30135;47.866;-4.222;2024-01-07T06:59:26;5.00;99.40
44431;DHT22;30135;47.866;-4.222;2024-01-07T07:01:54;5.00;99.40
44431;DHT22;30135;47.866;-4.222;2024-01-07T07:04:22;4.90;99.40
44431;DHT22;30135;47.866;-4.222;2024-01-07T07:06:48;4.90;99.40
44431;DHT22;30135;47.866;-4.222;2024-01-07T07:09:14;4.90;99.40
44431;DHT22;30135;47.866;-4.222;2024-01-07T07:11:41;4.90;99.40
44431;DHT22;30135;47.866;-4.222;2024-01-07T07:14:07;4.90;99.30
44431;DHT22;30135;47.866;-4.222;2024-01-07T07:16:33;4.90;99.30
44431;DHT22;30135;47.866;-4.222;2024-01-07T07:18:59;4.90;99.30
44431;DHT22;30135;47.866;-4.222;2024-01-07T07:21:24;4.90;99.30
44431;DHT22;30135;47.866;-4.222;2024-01-07T07:23:53;4.90;99.30
44431;DHT22;30135;47.866;-4.222;2024-01-07T07:26:19;4.80;99.30
44431;DHT22;30135;47.866;-4.222;2024-01-07T07:28:45;4.80;99.30
44431;DHT22;30135;47.866;-4.222;2024-01-07T07:31:11;4.80;99.30
44431;DHT22;30135;47.866;-4.222;2024-01-07T07:33:40;4.80;99.30
44431;DHT22;30135;47.866;-4.222;2024-01-07T07:36:07;4.80;99.20
44431;DHT22;30135;47.866;-4.222;2024-01-07T07:38:33;4.80;99.20
44431;DHT22;30135;47.866;-4.222;2024-01-07T07:41:02;4.70;99.20
44431;DHT22;30135;47.866;-4.222;2024-01-07T07:43:28;4.80;99.20
44431;DHT22;30135;47.866;-4.222;2024-01-07T07:45:55;4.70;99.20
44431;DHT22;30135;47.866;-4.222;2024-01-07T07:48:21;4.70;99.20
44431;DHT22;30135;47.866;-4.222;2024-01-07T07:50:49;4.70;99.20
44431;DHT22;30135;47.866;-4.222;2024-01-07T07:53:15;4.70;99.20
44431;DHT22;30135;47.866;-4.222;2024-01-07T07:55:41;4.70;99.30
44431;DHT22;30135;47.866;-4.222;2024-01-07T07:58:07;4.70;99.30
44431;DHT22;30135;47.866;-4.222;2024-01-07T08:00:33;4.70;99.30
44431;DHT22;30135;47.866;-4.222;2024-01-07T08:02:59;4.70;99.30
44431;DHT22;30135;47.866;-4.222;2024-01-07T08:05:25;4.70;99.20
44431;DHT22;30135;47.866;-4.222;2024-01-07T08:07:51;4.70;99.20
44431;DHT22;30135;47.866;-4.222;2024-01-07T08:10:17;4.70;99.20
44431;DHT22;30135;47.866;-4.222;2024-01-07T08:12:43;4.60;99.50
44431;DHT22;30135;47.866;-4.222;2024-01-07T08:15:09;4.60;99.20
44431;DHT22;30135;47.866;-4.222;2024-01-07T08:17:35;4.60;99.10
44431;DHT22;30135;47.866;-4.222;2024-01-07T08:20:01;4.60;99.10
44431;DHT22;30135;47.866;-4.222;2024-01-07T08:22:29;4.60;99.20
44431;DHT22;30135;47.866;-4.222;2024-01-07T08:24:55;4.60;99.20
44431;DHT22;30135;47.866;-4.222;2024-01-07T08:27:21;4.60;99.20
44431;DHT22;30135;47.866;-4.222;2024-01-07T08:29:46;4.60;99.20
44431;DHT22;30135;47.866;-4.222;2024-01-07T08:32:12;4.60;99.20
44431;DHT22;30135;47.866;-4.222;2024-01-07T08:34:39;4.60;99.20
44431;DHT22;30135;47.866;-4.222;2024-01-07T08:37:08;4.60;99.20
44431;DHT22;30135;47.866;-4.222;2024-01-07T08:39:34;4.60;99.20
44431;DHT22;30135;47.866;-4.222;2024-01-07T08:42:00;4.60;99.10
44431;DHT22;30135;47.866;-4.222;2024-01-07T08:44:26;4.60;99.10
44431;DHT22;30135;47.866;-4.222;2024-01-07T08:46:52;4.60;99.10
44431;DHT22;30135;47.866;-4.222;2024-01-07T08:49:18;4.50;99.10
44431;DHT22;30135;47.866;-4.222;2024-01-07T08:51:44;4.60;99.20
44431;DHT22;30135;47.866;-4.222;2024-01-07T08:54:10;4.60;99.30
44431;DHT22;30135;47.866;-4.222;2024-01-07T08:56:36;4.60;99.30
44431;DHT22;30135;47.866;-4.222;2024-01-07T08:59:02;4.60;99.40
44431;DHT22;30135;47.866;-4.222;2024-01-07T09:01:29;4.60;99.40
44431;DHT22;30135;47.866;-4.222;2024-01-07T09:03:55;4.60;99.40
44431;DHT22;30135;47.866;-4.222;2024-01-07T09:06:21;4.60;99.30
44431;DHT22;30135;47.866;-4.222;2024-01-07T09:08:47;4.70;99.40
44431;DHT22;30135;47.866;-4.222;2024-01-07T09:11:13;4.70;99.40
44431;DHT22;30135;47.866;-4.222;2024-01-07T09:13:39;4.70;99.40
44431;DHT22;30135;47.866;-4.222;2024-01-07T09:16:05;4.70;99.50
44431;DHT22;30135;47.866;-4.222;2024-01-07T09:18:32;4.70;99.50
44431;DHT22;30135;47.866;-4.222;2024-01-07T09:21:00;4.70;99.50
44431;DHT22;30135;47.866;-4.222;2024-01-07T09:23:26;4.70;99.60
44431;DHT22;30135;47.866;-4.222;2024-01-07T09:25:52;4.80;99.60
44431;DHT22;30135;47.866;-4.222;2024-01-07T09:28:18;4.80;99.60
44431;DHT22;30135;47.866;-4.222;2024-01-07T09:30:44;4.80;99.70
44431;DHT22;30135;47.866;-4.222;2024-01-07T09:33:10;4.80;99.70
44431;DHT22;30135;47.866;-4.222;2024-01-07T09:35:36;4.90;99.70
44431;DHT22;30135;47.866;-4.222;2024-01-07T09:38:02;4.90;99.80
44431;DHT22;30135;47.866;-4.222;2024-01-07T09:40:29;4.90;99.90
44431;DHT22;30135;47.866;-4.222;2024-01-07T09:42:56;4.90;99.90
44431;DHT22;30135;47.866;-4.222;2024-01-07T09:45:22;5.00;99.90
44431;DHT22;30135;47.866;-4.222;2024-01-07T09:47:49;5.00;99.90
44431;DHT22;30135;47.866;-4.222;2024-01-07T09:50:15;5.00;99.90
44431;DHT22;30135;47.866;-4.222;2024-01-07T09:52:43;5.10;99.90
44431;DHT22;30135;47.866;-4.222;2024-01-07T09:55:15;5.10;99.90
44431;DHT22;30135;47.866;-4.222;2024-01-07T09:57:47;5.10;99.90
44431;DHT22;30135;47.866;-4.222;2024-01-07T10:00:14;5.20;99.90
44431;DHT22;30135;47.866;-4.222;2024-01-07T10:02:40;5.30;99.90
44431;DHT22;30135;47.866;-4.222;2024-01-07T10:05:09;5.30;99.90
44431;DHT22;30135;47.866;-4.222;2024-01-07T10:07:35;5.40;99.90
44431;DHT22;30135;47.866;-4.222;2024-01-07T10:10:14;5.40;99.90
44431;DHT22;30135;47.866;-4.222;2024-01-07T10:12:41;5.50;99.90
44431;DHT22;30135;47.866;-4.222;2024-01-07T10:15:07;5.60;99.90
44431;DHT22;30135;47.866;-4.222;2024-01-07T10:17:36;5.60;99.90
44431;DHT22;30135;47.866;-4.222;2024-01-07T10:20:05;5.70;99.90
44431;DHT22;30135;47.866;-4.222;2024-01-07T10:22:38;5.70;99.90
44431;DHT22;30135;47.866;-4.222;2024-01-07T10:25:05;5.80;99.90
44431;DHT22;30135;47.866;-4.222;2024-01-07T10:27:37;5.90;99.90
44431;DHT22;30135;47.866;-4.222;2024-01-07T10:30:07;5.90;99.90
44431;DHT22;30135;47.866;-4.222;2024-01-07T10:32:35;6.00;99.90
44431;DHT22;30135;47.866;-4.222;2024-01-07T10:35:05;6.00;99.90
44431;DHT22;30135;47.866;-4.222;2024-01-07T10:37:32;6.10;99.90
44431;DHT22;30135;47.866;-4.222;2024-01-07T10:39:58;6.20;99.90
44431;DHT22;30135;47.866;-4.222;2024-01-07T10:42:32;6.30;99.90
44431;DHT22;30135;47.866;-4.222;2024-01-07T10:45:02;6.30;99.90
44431;DHT22;30135;47.866;-4.222;2024-01-07T10:47:31;6.40;99.90
44431;DHT22;30135;47.866;-4.222;2024-01-07T10:49:58;6.50;99.90
44431;DHT22;30135;47.866;-4.222;2024-01-07T10:52:27;6.60;99.90
44431;DHT22;30135;47.866;-4.222;2024-01-07T10:54:56;6.70;99.90
44431;DHT22;30135;47.866;-4.222;2024-01-07T10:57:42;6.80;99.90
44431;DHT22;30135;47.866;-4.222;2024-01-07T11:00:11;6.80;99.90
44431;DHT22;30135;47.866;-4.222;2024-01-07T11:05:58;7.00;99.90
44431;DHT22;30135;47.866;-4.222;2024-01-07T11:08:40;7.10;99.90
44431;DHT22;30135;47.866;-4.222;2024-01-07T11:11:26;7.10;99.90
44431;DHT22;30135;47.866;-4.222;2024-01-07T11:13:53;7.20;99.90
44431;DHT22;30135;47.866;-4.222;2024-01-07T11:16:41;7.30;99.90
44431;DHT22;30135;47.866;-4.222;2024-01-07T11:19:08;7.40;99.90
44431;DHT22;30135;47.866;-4.222;2024-01-07T11:21:34;7.40;99.90
44431;DHT22;30135;47.866;-4.222;2024-01-07T11:24:00;7.50;99.90
44431;DHT22;30135;47.866;-4.222;2024-01-07T11:26:28;7.50;99.90
44431;DHT22;30135;47.866;-4.222;2024-01-07T11:28:57;7.60;99.90
44431;DHT22;30135;47.866;-4.222;2024-01-07T11:31:49;7.70;99.90
44431;DHT22;30135;47.866;-4.222;2024-01-07T11:34:41;7.80;99.90
44431;DHT22;30135;47.866;-4.222;2024-01-07T11:37:13;7.80;99.90
44431;DHT22;30135;47.866;-4.222;2024-01-07T11:39:56;7.90;99.90
44431;DHT22;30135;47.866;-4.222;2024-01-07T11:42:24;7.90;99.90
44431;DHT22;30135;47.866;-4.222;2024-01-07T11:44:55;8.00;99.90
44431;DHT22;30135;47.866;-4.222;2024-01-07T11:47:22;8.00;99.90
44431;DHT22;30135;47.866;-4.222;2024-01-07T11:49:49;8.10;99.90
44431;DHT22;30135;47.866;-4.222;2024-01-07T11:52:15;8.20;99.90
44431;DHT22;30135;47.866;-4.222;2024-01-07T11:54:42;8.20;99.90
44431;DHT22;30135;47.866;-4.222;2024-01-07T11:57:08;8.30;99.90
44431;DHT22;30135;47.866;-4.222;2024-01-07T11:59:39;8.30;99.90
44431;DHT22;30135;47.866;-4.222;2024-01-07T12:02:05;8.40;99.90
44431;DHT22;30135;47.866;-4.222;2024-01-07T12:04:33;8.40;99.90
44431;DHT22;30135;47.866;-4.222;2024-01-07T12:07:00;8.40;99.70
44431;DHT22;30135;47.866;-4.222;2024-01-07T12:09:27;8.50;99.70
44431;DHT22;30135;47.866;-4.222;2024-01-07T12:11:53;8.50;99.60
44431;DHT22;30135;47.866;-4.222;2024-01-07T12:14:20;8.50;99.20
44431;DHT22;30135;47.866;-4.222;2024-01-07T12:16:46;8.60;99.10
44431;DHT22;30135;47.866;-4.222;2024-01-07T12:19:13;8.60;99.10
44431;DHT22;30135;47.866;-4.222;2024-01-07T12:21:39;8.70;98.80
44431;DHT22;30135;47.866;-4.222;2024-01-07T12:24:06;8.70;98.80
44431;DHT22;30135;47.866;-4.222;2024-01-07T12:26:32;8.80;98.80
44431;DHT22;30135;47.866;-4.222;2024-01-07T12:29:02;8.80;98.50
44431;DHT22;30135;47.866;-4.222;2024-01-07T12:31:33;8.80;98.20
44431;DHT22;30135;47.866;-4.222;2024-01-07T12:34:00;8.80;98.20
44431;DHT22;30135;47.866;-4.222;2024-01-07T12:36:30;8.90;98.60
44431;DHT22;30135;47.866;-4.222;2024-01-07T12:38:57;8.90;97.90
44431;DHT22;30135;47.866;-4.222;2024-01-07T12:41:23;9.00;97.80
44431;DHT22;30135;47.866;-4.222;2024-01-07T12:43:50;8.90;97.60
44431;DHT22;30135;47.866;-4.222;2024-01-07T12:46:16;9.00;97.50
44431;DHT22;30135;47.866;-4.222;2024-01-07T12:48:42;9.00;97.40
44431;DHT22;30135;47.866;-4.222;2024-01-07T12:51:09;9.00;97.40
44431;DHT22;30135;47.866;-4.222;2024-01-07T12:53:35;9.10;97.30
44431;DHT22;30135;47.866;-4.222;2024-01-07T12:56:01;9.00;97.10
44431;DHT22;30135;47.866;-4.222;2024-01-07T12:58:27;9.10;97.10
44431;DHT22;30135;47.866;-4.222;2024-01-07T13:00:53;9.10;97.10
44431;DHT22;30135;47.866;-4.222;2024-01-07T13:03:19;9.10;96.70
44431;DHT22;30135;47.866;-4.222;2024-01-07T13:05:46;9.10;96.40
44431;DHT22;30135;47.866;-4.222;2024-01-07T13:08:16;9.10;96.30
44431;DHT22;30135;47.866;-4.222;2024-01-07T13:10:48;9.20;96.30
44431;DHT22;30135;47.866;-4.222;2024-01-07T13:13:14;9.20;96.20
44431;DHT22;30135;47.866;-4.222;2024-01-07T13:15:43;9.20;96.20
44431;DHT22;30135;47.866;-4.222;2024-01-07T13:18:10;9.20;96.10
44431;DHT22;30135;47.866;-4.222;2024-01-07T13:20:39;9.30;96.00
44431;DHT22;30135;47.866;-4.222;2024-01-07T13:23:06;9.30;95.90
44431;DHT22;30135;47.866;-4.222;2024-01-07T13:25:31;9.30;95.80
44431;DHT22;30135;47.866;-4.222;2024-01-07T13:27:57;9.40;95.70
44431;DHT22;30135;47.866;-4.222;2024-01-07T13:30:25;9.40;95.60
44431;DHT22;30135;47.866;-4.222;2024-01-07T13:32:51;9.40;95.50
44431;DHT22;30135;47.866;-4.222;2024-01-07T13:35:22;9.40;95.20
44431;DHT22;30135;47.866;-4.222;2024-01-07T13:37:48;9.40;94.90
44431;DHT22;30135;47.866;-4.222;2024-01-07T13:40:14;9.40;94.80
44431;DHT22;30135;47.866;-4.222;2024-01-07T13:42:40;9.40;94.60
44431;DHT22;30135;47.866;-4.222;2024-01-07T13:45:07;9.40;94.40
44431;DHT22;30135;47.866;-4.222;2024-01-07T13:47:33;9.40;94.40
44431;DHT22;30135;47.866;-4.222;2024-01-07T13:50:01;9.40;94.30
44431;DHT22;30135;47.866;-4.222;2024-01-07T13:52:29;9.40;94.20
44431;DHT22;30135;47.866;-4.222;2024-01-07T13:54:55;9.40;94.10
44431;DHT22;30135;47.866;-4.222;2024-01-07T13:57:21;9.40;93.90
44431;DHT22;30135;47.866;-4.222;2024-01-07T13:59:47;9.40;93.70
44431;DHT22;30135;47.866;-4.222;2024-01-07T14:02:15;9.40;93.60
44431;DHT22;30135;47.866;-4.222;2024-01-07T14:04:45;9.50;93.60
44431;DHT22;30135;47.866;-4.222;2024-01-07T14:07:11;9.50;93.60
44431;DHT22;30135;47.866;-4.222;2024-01-07T14:09:37;9.50;93.50
44431;DHT22;30135;47.866;-4.222;2024-01-07T14:12:03;9.50;93.40
44431;DHT22;30135;47.866;-4.222;2024-01-07T14:14:29;9.50;93.10
44431;DHT22;30135;47.866;-4.222;2024-01-07T14:16:55;9.50;93.10
44431;DHT22;30135;47.866;-4.222;2024-01-07T14:19:21;9.50;93.10
44431;DHT22;30135;47.866;-4.222;2024-01-07T14:21:47;9.50;93.00
44431;DHT22;30135;47.866;-4.222;2024-01-07T14:24:13;9.50;93.00
44431;DHT22;30135;47.866;-4.222;2024-01-07T14:26:39;9.50;93.00
44431;DHT22;30135;47.866;-4.222;2024-01-07T14:29:05;9.50;92.80
44431;DHT22;30135;47.866;-4.222;2024-01-07T14:31:31;9.50;92.80
44431;DHT22;30135;47.866;-4.222;2024-01-07T14:33:58;9.50;92.70
44431;DHT22;30135;47.866;-4.222;2024-01-07T14:36:24;9.50;92.70
44431;DHT22;30135;47.866;-4.222;2024-01-07T14:38:52;9.40;92.70
44431;DHT22;30135;47.866;-4.222;2024-01-07T14:41:18;9.50;92.70
44431;DHT22;30135;47.866;-4.222;2024-01-07T14:43:44;9.40;92.40
44431;DHT22;30135;47.866;-4.222;2024-01-07T14:46:09;9.50;92.50
44431;DHT22;30135;47.866;-4.222;2024-01-07T14:48:36;9.50;92.30
44431;DHT22;30135;47.866;-4.222;2024-01-07T14:51:02;9.50;92.40
44431;DHT22;30135;47.866;-4.222;2024-01-07T14:53:28;9.60;92.30
44431;DHT22;30135;47.866;-4.222;2024-01-07T14:55:55;9.60;92.20
44431;DHT22;30135;47.866;-4.222;2024-01-07T14:58:21;9.60;92.10
44431;DHT22;30135;47.866;-4.222;2024-01-07T15:00:48;9.60;92.10
44431;DHT22;30135;47.866;-4.222;2024-01-07T15:03:14;9.60;92.00
44431;DHT22;30135;47.866;-4.222;2024-01-07T15:05:40;9.60;91.90
44431;DHT22;30135;47.866;-4.222;2024-01-07T15:08:07;9.60;91.90
44431;DHT22;30135;47.866;-4.222;2024-01-07T15:10:33;9.60;92.00
44431;DHT22;30135;47.866;-4.222;2024-01-07T15:12:59;9.60;91.80
44431;DHT22;30135;47.866;-4.222;2024-01-07T15:15:25;9.70;91.90
44431;DHT22;30135;47.866;-4.222;2024-01-07T15:17:58;9.70;91.90
44431;DHT22;30135;47.866;-4.222;2024-01-07T15:20:24;9.70;91.70
44431;DHT22;30135;47.866;-4.222;2024-01-07T15:22:51;9.70;91.90
44431;DHT22;30135;47.866;-4.222;2024-01-07T15:25:18;9.70;92.00
44431;DHT22;30135;47.866;-4.222;2024-01-07T15:27:44;9.70;92.10
44431;DHT22;30135;47.866;-4.222;2024-01-07T15:30:11;9.70;92.10
44431;DHT22;30135;47.866;-4.222;2024-01-07T15:32:37;9.60;92.10